Mahon, Spain

5:41 PM CEST on October 24, 2014 (GMT +0200)
Menorca | Change Station
CLOSE
Current Station
Airport
Location: Menorca,
Elevation: 282 ft
Nearby Weather Stations

Elev 282 ft 39.86 °N, 4.22 °E | Updated 11 minutes ago

Clear
Clear
73 °F
Feels Like 73 °F
N
1
Wind Variable Wind from Variable

Today
High -- | Low -- °F
--% Chance of Precip.
Yesterday
High -- | Low -- °F
Precip. -- in
8:02 AM 6:51 PM
New Moon, 1% visible
Pressure 30.01 in
Visibility -9999.0 miles
Clouds
Dew Point 54 °F
Humidity 50%
Rainfall 0.00 in
Snow Depth Not available.
UV Not available.
Pollen Not available.
Air Quality Not available.
Flu Activity Not available.
METAR LEMH 241530Z VRB01KT CAVOK 23/12 Q1016

More Conditions Fewer Conditions

Pressure 30.01 in
Visibility -9999.0 miles
Clouds
Dew Point 54 °F
Humidity 50%
Rainfall 0.00 in
Snow Depth Not available.
UV Not available.
Pollen Not available.
Air Quality Not available.
Flu Activity Not available.
METAR LEMH 241530Z VRB01KT CAVOK 23/12 Q1016

More Conditions Fewer Conditions

10-Day Weather Forecast

Almanac

Astronomy

Oct. 24, 2014 Rise Set
Actual Time 8:02 AM CEST 6:51 PM CEST
Civil Twilight 7:35 AM CEST 7:18 PM CEST
Nautical Twilight 7:03 AM CEST 7:50 PM CEST
Astronomical Twilight 6:32 AM CEST 8:21 PM CEST
Moon 8:26 AM CEST 7:20 PM CEST
Length of Visible Light 11h 43m
Length of Day
10h 48m
Tomorrow will be 2m 25s shorter.
New Moon, 1% of the Moon is Illuminated
Today
New Moon
Oct 30
First Quarter
Nov 6
Full
Nov 14
Last Quarter
Nov 22
New

Today's Extremes

Country Highs Country Lows

Community

WunderPhotos

Upload Photos

1,764,590 photos uploaded!

WunderBlogs® & News

Nearby

Snow Depth

Not available.

Earthquake Activity

City Distance Mag. Time & Date
No recent earthquake activity has been reported nearby.
Minimum magnitude displayed is 2.5.

Coastal Water Temperatures

Place Temperature
No Stations Reporting

Nearby Weather Stations